createdAt,value
2019-05-02T00:01:32.238Z,32.27
2019-05-02T00:04:02.953Z,29.13
2019-05-02T00:06:37.900Z,29.07
2019-05-02T00:09:10.954Z,27.83
2019-05-02T00:11:40.932Z,28.77
2019-05-02T00:14:14.184Z,29.47
2019-05-02T00:16:49.081Z,28.00
2019-05-02T00:19:16.766Z,27.70
2019-05-02T00:21:47.141Z,32.43
2019-05-02T00:24:17.499Z,30.23
2019-05-02T00:26:47.901Z,27.20
2019-05-02T00:29:19.003Z,30.27
2019-05-02T00:31:50.369Z,32.57
2019-05-02T00:34:20.741Z,33.10
2019-05-02T00:36:51.175Z,29.83
2019-05-02T00:39:21.677Z,28.13
2019-05-02T00:41:52.107Z,28.33
2019-05-02T00:44:23.027Z,30.17
2019-05-02T00:46:55.306Z,29.23
2019-05-02T00:49:25.751Z,31.63
2019-05-02T00:51:56.580Z,29.13
2019-05-02T00:54:28.151Z,33.07
2019-05-02T00:56:58.573Z,27.37
2019-05-02T00:59:29.000Z,29.10
2019-05-02T01:02:07.787Z,30.37
2019-05-02T01:04:40.108Z,29.50
2019-05-02T01:07:11.079Z,33.60
2019-05-02T01:09:46.800Z,30.37
2019-05-02T01:12:26.276Z,29.67
2019-05-02T01:14:48.560Z,26.33
2019-05-02T01:17:19.114Z,25.83
2019-05-02T01:19:51.452Z,25.83
2019-05-02T01:22:21.518Z,24.80
2019-05-02T01:24:52.186Z,24.37
2019-05-02T01:27:42.593Z,26.43
2019-05-02T01:30:26.110Z,24.10
2019-05-02T01:33:13.643Z,22.20
2019-05-02T01:35:52.800Z,21.50
2019-05-02T01:38:31.678Z,25.57
2019-05-02T01:41:02.673Z,22.30
2019-05-02T01:43:35.907Z,23.37
2019-05-02T01:46:06.545Z,21.00
2019-05-02T01:48:40.057Z,22.83
2019-05-02T01:51:10.400Z,24.67
2019-05-02T01:53:41.278Z,20.53
2019-05-02T01:56:11.687Z,20.27
2019-05-02T01:58:42.036Z,23.53
2019-05-02T02:01:16.346Z,22.17
2019-05-02T02:03:45.614Z,21.00
2019-05-02T02:06:16.423Z,21.50
2019-05-02T02:08:46.802Z,19.13
2019-05-02T02:11:17.131Z,19.40
2019-05-02T02:13:50.171Z,20.07
2019-05-02T02:16:20.632Z,22.43
2019-05-02T02:19:04.076Z,20.90
2019-05-02T02:21:43.044Z,21.23
2019-05-02T02:24:25.430Z,20.43
2019-05-02T02:26:53.740Z,20.13
2019-05-02T02:29:24.109Z,21.67
2019-05-02T02:31:54.540Z,23.00
2019-05-02T02:34:29.286Z,20.87
2019-05-02T02:37:05.216Z,26.67
2019-05-02T02:39:31.672Z,22.57
2019-05-02T02:42:02.296Z,26.20
2019-05-02T02:44:51.065Z,25.30
2019-05-02T02:47:21.415Z,22.93
2019-05-02T02:49:56.003Z,22.90
2019-05-02T02:52:23.749Z,21.70
2019-05-02T02:54:54.200Z,23.53
2019-05-02T02:57:28.202Z,22.77
2019-05-02T03:00:06.704Z,22.20
2019-05-02T03:02:28.819Z,22.13
2019-05-02T03:04:59.728Z,22.13
2019-05-02T03:07:30.304Z,21.70
2019-05-02T03:10:06.289Z,20.33
2019-05-02T03:12:46.103Z,22.57
2019-05-02T03:15:21.126Z,27.90
2019-05-02T03:17:50.733Z,21.60
2019-05-02T03:20:21.211Z,23.80
2019-05-02T03:22:52.148Z,25.50
2019-05-02T03:25:27.047Z,23.93
2019-05-02T03:27:54.859Z,22.47
2019-05-02T03:30:32.827Z,27.13
2019-05-02T03:33:09.718Z,26.43
2019-05-02T03:35:42.928Z,25.07
2019-05-02T03:38:05.835Z,26.37
2019-05-02T03:40:39.612Z,24.53
2019-05-02T03:43:08.895Z,23.67
2019-05-02T03:45:43.028Z,27.03
2019-05-02T03:48:18.449Z,25.40
2019-05-02T03:50:44.217Z,23.13
2019-05-02T03:53:24.164Z,22.87
2019-05-02T03:55:46.614Z,25.03
2019-05-02T03:58:17.402Z,21.40
2019-05-02T04:00:48.172Z,23.63
2019-05-02T04:03:21.328Z,23.97
2019-05-02T04:05:51.762Z,25.13
2019-05-02T04:08:22.747Z,23.50
2019-05-02T04:11:38.382Z,28.53
2019-05-02T04:14:14.877Z,25.57
2019-05-02T04:16:35.538Z,28.00
2019-05-02T04:19:06.686Z,24.83
2019-05-02T04:21:37.678Z,27.00
2019-05-02T04:24:13.395Z,27.63
2019-05-02T04:26:52.620Z,30.90
2019-05-02T04:29:14.109Z,26.60
2019-05-02T04:31:44.894Z,26.73
2019-05-02T04:34:17.846Z,25.77
2019-05-02T04:37:00.151Z,26.23
2019-05-02T04:39:21.616Z,25.40
2019-05-02T04:41:52.701Z,31.10
2019-05-02T04:44:32.265Z,28.90
2019-05-02T04:47:02.669Z,29.97
2019-05-02T04:49:35.787Z,27.20
2019-05-02T04:52:07.864Z,28.63
2019-05-02T04:54:38.865Z,29.77
2019-05-02T04:57:10.258Z,31.40
2019-05-02T04:59:41.766Z,27.80
2019-05-02T05:02:13.128Z,28.37
2019-05-02T05:04:48.652Z,30.03
2019-05-02T05:07:17.738Z,27.57
2019-05-02T05:09:57.144Z,30.13
2019-05-02T05:12:21.778Z,33.63
2019-05-02T05:14:53.291Z,32.83
2019-05-02T05:17:32.453Z,29.93
2019-05-02T05:20:00.154Z,34.93
2019-05-02T05:22:36.581Z,30.93
2019-05-02T05:25:12.416Z,30.17
2019-05-02T05:27:42.223Z,32.17
2019-05-02T05:30:15.677Z,32.73
2019-05-02T05:32:47.788Z,30.23
2019-05-02T05:35:18.339Z,31.47
2019-05-02T05:37:53.142Z,32.40
2019-05-02T05:40:22.565Z,32.70
2019-05-02T05:42:57.326Z,29.30
2019-05-02T05:45:28.203Z,27.97
2019-05-02T05:48:01.091Z,35.67
2019-05-02T05:50:32.148Z,34.87
2019-05-02T05:53:05.192Z,38.07
2019-05-02T05:55:38.213Z,32.83
2019-05-02T05:58:15.242Z,33.40
2019-05-02T06:00:45.923Z,36.47
2019-05-02T06:03:14.852Z,36.03
2019-05-02T06:05:47.640Z,34.77
2019-05-02T06:08:20.007Z,36.57
2019-05-02T06:10:51.727Z,34.67
2019-05-02T06:13:22.499Z,30.93
2019-05-02T06:16:02.040Z,36.37
2019-05-02T06:18:28.437Z,34.63
2019-05-02T06:21:03.172Z,35.37
2019-05-02T06:23:36.268Z,34.40
2019-05-02T06:26:13.069Z,34.63
2019-05-02T06:28:41.583Z,32.30
2019-05-02T06:31:13.308Z,34.10
2019-05-02T06:33:44.614Z,34.87
2019-05-02T06:36:15.502Z,32.57
2019-05-02T06:38:46.745Z,35.63
2019-05-02T06:41:20.983Z,32.37
2019-05-02T06:43:50.874Z,33.43
2019-05-02T06:46:27.824Z,37.70
2019-05-02T06:48:55.313Z,33.07
2019-05-02T06:51:26.111Z,34.63
2019-05-02T06:53:57.031Z,29.53
2019-05-02T06:56:28.432Z,34.00
2019-05-02T06:59:01.086Z,37.67
2019-05-02T07:01:32.843Z,32.73
2019-05-02T07:04:04.561Z,37.33
2019-05-02T07:06:56.057Z,34.50
2019-05-02T07:09:09.729Z,35.47
2019-05-02T07:11:41.126Z,35.70
2019-05-02T07:14:13.796Z,38.30
2019-05-02T07:16:54.632Z,38.77
2019-05-02T07:19:29.421Z,38.40
2019-05-02T07:22:04.213Z,38.70
2019-05-02T07:24:33.587Z,36.23
2019-05-02T07:27:04.888Z,35.27
2019-05-02T07:29:36.013Z,34.93
2019-05-02T07:32:07.521Z,38.37
2019-05-02T07:34:38.513Z,36.47
2019-05-02T07:37:12.607Z,35.47
2019-05-02T07:39:42.786Z,32.97
2019-05-02T07:42:13.910Z,38.07
2019-05-02T07:44:47.064Z,34.80
2019-05-02T07:47:18.601Z,35.73
2019-05-02T07:49:49.869Z,36.23
2019-05-02T07:52:20.779Z,39.90
2019-05-02T07:54:56.181Z,34.13
2019-05-02T07:57:25.132Z,39.67
2019-05-02T08:00:00.669Z,38.33
2019-05-02T08:02:32.119Z,41.40
2019-05-02T08:05:03.708Z,40.20
2019-05-02T08:07:34.936Z,41.33
2019-05-02T08:10:07.080Z,38.87
2019-05-02T08:12:38.021Z,41.43
2019-05-02T08:15:13.118Z,42.30
2019-05-02T08:17:42.211Z,37.30
2019-05-02T08:20:19.031Z,43.40
2019-05-02T08:22:49.004Z,37.87
2019-05-02T08:25:20.601Z,39.37
2019-05-02T08:27:59.506Z,40.10
2019-05-02T08:30:35.284Z,38.07
2019-05-02T08:33:07.156Z,39.37
2019-05-02T08:35:38.518Z,40.97
2019-05-02T08:38:12.512Z,43.70
2019-05-02T08:40:47.598Z,40.07
2019-05-02T08:43:15.002Z,41.83
2019-05-02T08:45:46.792Z,40.60
2019-05-02T08:48:18.418Z,38.13
2019-05-02T08:50:50.106Z,39.47
2019-05-02T08:53:24.456Z,43.77
2019-05-02T08:55:55.563Z,45.17
2019-05-02T08:58:27.009Z,37.97
2019-05-02T09:00:58.344Z,39.83
2019-05-02T09:03:38.936Z,35.23
2019-05-02T09:06:05.997Z,42.43
2019-05-02T09:08:36.343Z,37.40
2019-05-02T09:11:07.822Z,42.47
2019-05-02T09:13:39.227Z,41.80
2019-05-02T09:16:12.078Z,45.23
2019-05-02T09:18:50.674Z,37.83
2019-05-02T09:21:16.313Z,43.50
2019-05-02T09:23:47.681Z,40.37
2019-05-02T09:26:26.352Z,38.47
2019-05-02T09:28:56.239Z,39.83
2019-05-02T09:31:24.887Z,36.73
2019-05-02T09:33:57.153Z,41.20
2019-05-02T09:36:32.166Z,38.23
2019-05-02T09:39:04.106Z,41.67
2019-05-02T09:41:36.370Z,40.07
2019-05-02T09:44:09.102Z,35.97
2019-05-02T09:46:42.914Z,41.47
2019-05-02T09:49:16.545Z,40.73
2019-05-02T09:51:50.460Z,39.43
2019-05-02T09:54:22.822Z,40.73
2019-05-02T09:56:53.567Z,39.90
2019-05-02T09:59:33.112Z,36.07
2019-05-02T10:02:07.035Z,40.43
2019-05-02T10:04:37.973Z,37.47
2019-05-02T10:07:09.443Z,37.80
2019-05-02T10:09:42.433Z,36.50
2019-05-02T10:12:14.323Z,38.80
2019-05-02T10:14:45.656Z,39.17
2019-05-02T10:17:18.520Z,41.57
2019-05-02T10:19:54.945Z,40.53
2019-05-02T10:22:24.963Z,38.90
2019-05-02T10:24:58.662Z,36.60
2019-05-02T10:27:29.598Z,37.30
2019-05-02T10:30:08.393Z,36.30
2019-05-02T10:32:34.529Z,36.10
2019-05-02T10:35:06.137Z,37.83
2019-05-02T10:37:38.335Z,40.40
2019-05-02T10:40:13.444Z,36.97
2019-05-02T10:42:43.095Z,34.40
2019-05-02T10:45:16.675Z,35.97
2019-05-02T10:47:47.552Z,35.40
2019-05-02T10:50:23.681Z,37.33
2019-05-02T10:52:54.798Z,35.60
2019-05-02T10:55:26.613Z,34.80
2019-05-02T10:57:57.913Z,34.40
2019-05-02T11:00:35.763Z,36.37
2019-05-02T11:03:16.246Z,34.23
2019-05-02T11:05:52.809Z,40.83
2019-05-02T11:08:24.546Z,39.73
2019-05-02T11:10:55.574Z,33.43
2019-05-02T11:13:55.021Z,36.00
2019-05-02T11:16:39.429Z,40.33
2019-05-02T11:19:17.647Z,38.83
2019-05-02T11:21:56.538Z,36.70
2019-05-02T11:24:22.517Z,37.97
2019-05-02T11:26:56.760Z,40.53
2019-05-02T11:29:28.121Z,38.93
2019-05-02T11:31:59.098Z,42.17
2019-05-02T11:34:32.799Z,42.30
2019-05-02T11:37:04.243Z,38.83
2019-05-02T11:39:44.034Z,36.33
2019-05-02T11:42:08.633Z,42.17
2019-05-02T11:44:41.751Z,37.97
2019-05-02T11:47:12.688Z,39.87
2019-05-02T11:49:46.763Z,38.97
2019-05-02T11:52:17.420Z,38.33
2019-05-02T11:54:48.909Z,38.10
2019-05-02T11:57:22.815Z,37.97
2019-05-02T11:59:52.824Z,36.40
2019-05-02T12:02:49.189Z,34.97
2019-05-02T12:05:19.482Z,35.33
2019-05-02T12:07:52.225Z,36.80
2019-05-02T12:10:23.379Z,37.93
2019-05-02T12:12:54.769Z,36.80
2019-05-02T12:15:26.809Z,38.07
2019-05-02T12:17:57.794Z,35.57
2019-05-02T12:20:33.955Z,35.17
2019-05-02T12:23:02.150Z,33.10
2019-05-02T12:25:36.740Z,40.40
2019-05-02T12:28:08.567Z,38.87
2019-05-02T12:30:39.430Z,38.27
2019-05-02T12:33:12.292Z,37.33
2019-05-02T12:35:44.261Z,34.93
2019-05-02T12:38:15.450Z,32.03
2019-05-02T12:40:46.742Z,36.80
2019-05-02T12:43:17.616Z,38.27
2019-05-02T12:45:49.252Z,39.70
2019-05-02T12:48:22.023Z,34.40
2019-05-02T12:50:52.996Z,34.17
2019-05-02T12:53:24.218Z,35.40
2019-05-02T12:55:55.489Z,36.77
2019-05-02T12:58:26.292Z,35.90
2019-05-02T13:00:57.239Z,38.13
2019-05-02T13:03:46.142Z,32.87
2019-05-02T13:06:17.390Z,33.00
2019-05-02T13:08:52.706Z,32.03
2019-05-02T13:11:43.918Z,36.27
2019-05-02T13:14:19.472Z,36.53
2019-05-02T13:16:53.540Z,36.57
2019-05-02T13:19:37.209Z,39.87
2019-05-02T13:22:14.789Z,37.83
2019-05-02T13:24:54.107Z,34.57
2019-05-02T13:27:22.829Z,37.67
2019-05-02T13:29:53.792Z,34.10
2019-05-02T13:32:42.704Z,39.07
2019-05-02T13:35:36.633Z,37.53
2019-05-02T13:38:12.862Z,37.50
2019-05-02T13:40:45.193Z,34.57
2019-05-02T13:43:15.877Z,34.70
2019-05-02T13:45:59.705Z,39.33
2019-05-02T13:48:34.678Z,35.70
2019-05-02T13:51:05.994Z,35.00
2019-05-02T13:53:37.987Z,35.43
2019-05-02T13:56:42.696Z,37.20
2019-05-02T13:59:13.009Z,40.37
2019-05-02T14:01:44.382Z,38.73
2019-05-02T14:04:15.796Z,34.97
2019-05-02T14:06:47.274Z,40.40
2019-05-02T14:09:35.842Z,39.17
2019-05-02T14:12:14.704Z,38.47
2019-05-02T14:14:46.318Z,40.83
2019-05-02T14:17:17.424Z,38.03
2019-05-02T14:19:48.706Z,40.30
2019-05-02T14:22:19.352Z,41.27
2019-05-02T14:24:51.891Z,44.40
2019-05-02T14:27:23.438Z,45.57
2019-05-02T14:29:54.615Z,44.97
2019-05-02T14:32:26.726Z,45.70
2019-05-02T14:35:18.615Z,47.13
2019-05-02T14:38:08.566Z,45.37
2019-05-02T14:40:51.954Z,43.40
2019-05-02T14:43:44.549Z,46.40
2019-05-02T14:46:12.953Z,44.33
2019-05-02T14:48:45.452Z,45.00
2019-05-02T14:51:21.346Z,46.90
2019-05-02T14:53:49.439Z,45.67
2019-05-02T14:56:26.247Z,44.17
2019-05-02T14:58:57.015Z,47.23
2019-05-02T15:01:32.157Z,52.87
2019-05-02T15:04:08.137Z,49.47
2019-05-02T15:06:38.374Z,50.07
2019-05-02T15:09:12.070Z,47.03
2019-05-02T15:12:08.229Z,44.40
2019-05-02T15:14:36.168Z,47.87
2019-05-02T15:17:07.725Z,49.50
2019-05-02T15:19:39.555Z,50.40
2019-05-02T15:22:12.323Z,48.23
2019-05-02T15:24:43.294Z,45.07
2019-05-02T15:27:17.796Z,50.33
2019-05-02T15:29:47.017Z,47.33
2019-05-02T15:32:46.317Z,49.23
2019-05-02T15:35:32.379Z,49.30
2019-05-02T15:38:06.831Z,47.30
2019-05-02T15:40:46.997Z,52.57
2019-05-02T15:43:12.618Z,52.40
2019-05-02T15:45:45.434Z,53.80
2019-05-02T15:48:22.791Z,49.30
2019-05-02T15:50:52.464Z,53.50
2019-05-02T15:53:29.929Z,50.23
2019-05-02T15:56:02.085Z,47.83
2019-05-02T15:58:33.478Z,50.00
2019-05-02T16:01:22.474Z,46.63
2019-05-02T16:03:54.644Z,47.17
2019-05-02T16:06:31.581Z,46.40
2019-05-02T16:08:58.541Z,50.40
2019-05-02T16:11:29.534Z,49.37
2019-05-02T16:14:03.230Z,44.57
2019-05-02T16:16:36.662Z,47.93
2019-05-02T16:19:14.943Z,46.93
2019-05-02T16:21:49.790Z,44.20
2019-05-02T16:24:22.966Z,43.50
2019-05-02T16:26:57.228Z,47.67
2019-05-02T16:29:29.636Z,38.67
2019-05-02T16:32:23.602Z,41.40
2019-05-02T16:34:56.448Z,39.13
2019-05-02T16:37:27.635Z,38.07
2019-05-02T16:39:58.540Z,41.67
2019-05-02T16:42:29.458Z,44.50
2019-05-02T16:45:02.652Z,45.23
2019-05-02T16:47:34.409Z,42.57
2019-05-02T16:50:06.859Z,41.60
2019-05-02T16:52:42.578Z,48.90
2019-05-02T16:55:13.688Z,44.90
2019-05-02T16:57:43.198Z,48.77
2019-05-02T17:00:20.003Z,49.60
2019-05-02T17:02:51.306Z,42.23
2019-05-02T17:05:22.854Z,44.30
2019-05-02T17:08:18.915Z,40.57
2019-05-02T17:10:56.854Z,45.27
2019-05-02T17:13:32.774Z,41.13
2019-05-02T17:16:06.895Z,40.93
2019-05-02T17:18:32.808Z,41.10
2019-05-02T17:21:04.007Z,42.87
2019-05-02T17:23:42.825Z,38.17
2019-05-02T17:26:12.255Z,39.70
2019-05-02T17:28:47.268Z,37.63
2019-05-02T17:31:20.441Z,38.77
2019-05-02T17:33:52.418Z,40.07
2019-05-02T17:36:28.653Z,38.63
2019-05-02T17:38:59.323Z,40.70
2019-05-02T17:41:31.803Z,38.43
2019-05-02T17:44:03.990Z,38.63
2019-05-02T17:46:36.675Z,37.63
2019-05-02T17:49:08.130Z,37.67
2019-05-02T17:52:05.591Z,39.17
2019-05-02T17:54:33.141Z,38.20
2019-05-02T17:57:07.331Z,36.00
2019-05-02T17:59:38.267Z,35.30
2019-05-02T18:02:14.234Z,36.33
2019-05-02T18:04:42.199Z,37.50
2019-05-02T18:07:14.819Z,38.70
2019-05-02T18:09:45.743Z,37.73
2019-05-02T18:12:16.919Z,39.93
2019-05-02T18:14:53.129Z,40.20
2019-05-02T18:17:22.011Z,39.83
2019-05-02T18:19:56.737Z,36.87
2019-05-02T18:22:26.329Z,42.87
2019-05-02T18:24:57.624Z,39.20
2019-05-02T18:27:31.186Z,39.97
2019-05-02T18:30:02.307Z,41.57
2019-05-02T18:32:33.426Z,40.20
2019-05-02T18:35:06.245Z,45.47
2019-05-02T18:37:41.777Z,43.57
2019-05-02T18:40:11.753Z,41.70
2019-05-02T18:42:42.416Z,40.27
2019-05-02T18:45:18.519Z,40.10
2019-05-02T18:47:48.872Z,40.33
2019-05-02T18:50:46.169Z,41.07
2019-05-02T18:53:13.747Z,43.20
2019-05-02T18:55:44.315Z,22.17
2019-05-02T18:58:14.633Z,14.27
2019-05-02T19:00:45.012Z,10.73
2019-05-02T19:03:17.314Z,8.90
2019-05-02T19:05:51.490Z,10.67
2019-05-02T19:08:29.115Z,13.07
2019-05-02T19:11:05.373Z,10.10
2019-05-02T19:13:26.131Z,11.40
2019-05-02T19:15:56.924Z,9.67
2019-05-02T19:18:27.613Z,12.23
2019-05-02T19:21:03.038Z,7.87
2019-05-02T19:23:35.860Z,8.97
2019-05-02T19:26:12.385Z,9.17
2019-05-02T19:28:54.310Z,8.27
2019-05-02T19:31:28.376Z,8.60
2019-05-02T19:33:58.818Z,8.70
2019-05-02T19:36:29.697Z,8.00
2019-05-02T19:39:07.870Z,11.77
2019-05-02T19:41:32.187Z,13.27
2019-05-02T19:44:02.739Z,9.57
2019-05-02T19:46:38.595Z,9.83
2019-05-02T19:49:06.888Z,10.80
2019-05-02T19:51:37.763Z,13.23
2019-05-02T19:54:08.558Z,10.40
2019-05-02T19:56:43.936Z,10.97
2019-05-02T19:59:12.022Z,9.57
2019-05-02T20:01:43.103Z,8.73
2019-05-02T20:04:13.807Z,9.63
2019-05-02T20:06:44.542Z,10.80
2019-05-02T20:09:15.009Z,10.73
2019-05-02T20:11:45.487Z,13.20
2019-05-02T20:14:16.592Z,14.80
2019-05-02T20:16:52.883Z,11.73
2019-05-02T20:19:26.957Z,11.40
2019-05-02T20:22:04.817Z,12.93
2019-05-02T20:24:55.447Z,12.30
2019-05-02T20:27:24.187Z,11.23
2019-05-02T20:29:54.882Z,10.80
2019-05-02T20:32:26.466Z,9.53
2019-05-02T20:34:57.382Z,9.37
2019-05-02T20:37:28.518Z,7.37
2019-05-02T20:39:59.358Z,8.17
2019-05-02T20:42:32.101Z,5.83
2019-05-02T20:45:02.999Z,8.67
2019-05-02T20:47:34.020Z,6.37
2019-05-02T20:50:05.963Z,6.40
2019-05-02T20:52:38.061Z,5.37
2019-05-02T20:55:08.924Z,8.13
2019-05-02T20:57:39.888Z,4.27
2019-05-02T21:00:19.662Z,4.40
2019-05-02T21:02:51.882Z,7.43
2019-05-02T21:05:27.106Z,5.77
2019-05-02T21:08:35.361Z,5.00
2019-05-02T21:11:06.434Z,6.60
2019-05-02T21:13:38.944Z,5.83
2019-05-02T21:16:10.034Z,5.43
2019-05-02T21:18:42.312Z,3.63
2019-05-02T21:21:13.487Z,6.40
2019-05-02T21:23:47.812Z,4.73
2019-05-02T21:26:18.656Z,4.20
2019-05-02T21:28:49.816Z,3.10
2019-05-02T21:31:22.388Z,6.43
2019-05-02T21:33:52.947Z,5.47
2019-05-02T21:36:23.679Z,4.47
2019-05-02T21:38:54.326Z,4.13
2019-05-02T21:41:25.357Z,4.37
2019-05-02T21:43:57.689Z,5.20
2019-05-02T21:46:29.274Z,5.37
2019-05-02T21:49:00.448Z,4.33
2019-05-02T21:51:38.607Z,5.47
2019-05-02T21:54:19.617Z,6.00
2019-05-02T21:56:54.661Z,5.60
2019-05-02T21:59:25.515Z,4.80
2019-05-02T22:01:57.945Z,7.20
2019-05-02T22:04:29.191Z,5.23
2019-05-02T22:07:02.003Z,5.47
2019-05-02T22:09:33.005Z,6.67
2019-05-02T22:12:04.443Z,6.53
2019-05-02T22:14:35.095Z,4.43
2019-05-02T22:17:06.318Z,5.20
2019-05-02T22:19:41.600Z,5.60
2019-05-02T22:22:12.297Z,6.27
2019-05-02T22:24:43.010Z,6.77
2019-05-02T22:27:13.927Z,4.07
2019-05-02T22:29:45.143Z,5.20
2019-05-02T22:32:17.495Z,6.03
2019-05-02T22:34:48.646Z,6.30
2019-05-02T22:37:22.068Z,9.53
2019-05-02T22:39:57.358Z,6.17
2019-05-02T22:42:27.943Z,5.93
2019-05-02T22:44:58.928Z,5.40
2019-05-02T22:47:29.524Z,7.60
2019-05-02T22:50:00.156Z,7.57
2019-05-02T22:52:32.560Z,5.03
2019-05-02T22:55:03.381Z,8.20
2019-05-02T22:57:33.941Z,4.83
2019-05-02T23:00:06.177Z,7.43
2019-05-02T23:02:36.787Z,5.93
2019-05-02T23:05:07.772Z,5.97
2019-05-02T23:07:38.168Z,5.93
2019-05-02T23:10:09.432Z,8.07
2019-05-02T23:12:42.273Z,4.80
2019-05-02T23:15:12.885Z,9.53
2019-05-02T23:17:43.557Z,7.90
2019-05-02T23:20:14.503Z,6.57
2019-05-02T23:22:45.241Z,6.33
2019-05-02T23:25:42.570Z,5.90
2019-05-02T23:28:26.195Z,5.03
2019-05-02T23:30:57.487Z,8.67
2019-05-02T23:33:47.476Z,5.70
2019-05-02T23:36:18.023Z,8.97
2019-05-02T23:38:49.451Z,7.80
2019-05-02T23:41:23.174Z,4.30
2019-05-02T23:43:53.892Z,6.20
2019-05-02T23:46:24.990Z,8.93
2019-05-02T23:48:55.688Z,9.30
2019-05-02T23:51:26.578Z,5.83
2019-05-02T23:53:57.366Z,9.03
2019-05-02T23:56:32.271Z,7.70
2019-05-02T23:59:03.235Z,8.77
